Time;durP1;ratioP1;P1;durP2;ratioP2;P2;SDS_P1;SDS_P2;PMS_P1;PMS_P2;Temp;Humidity;BMP_temperature;BMP_pressure;BME280_temperature;BME280_humidity;BME280_pressure;Samples;Min_cycle;Max_cycle;Signal;HPM_P1;HPM_P2
2023/08/23 00:01:13;;;;;;;2.28;1.20;;;21.30;71.40;;;;;;4948264;28;20037;-20
2023/08/23 00:03:38;;;;;;;1.67;1.20;;;21.30;71.50;;;;;;4990737;28;20406;-20
2023/08/23 00:06:04;;;;;;;1.07;0.97;;;21.30;71.40;;;;;;4995871;28;20068;-20
2023/08/23 00:08:30;;;;;;;1.20;0.90;;;21.30;71.40;;;;;;4963468;28;20315;-20
2023/08/23 00:10:56;;;;;;;1.50;1.00;;;21.30;71.40;;;;;;4997247;28;20037;-20
2023/08/23 00:13:22;;;;;;;1.30;1.10;;;21.30;71.40;;;;;;4990645;28;20464;-19
2023/08/23 00:15:48;;;;;;;1.90;1.17;;;21.20;71.50;;;;;;4963161;28;20042;-20
2023/08/23 00:18:14;;;;;;;1.58;1.00;;;21.20;72.90;;;;;;4998344;28;20033;-20
2023/08/23 00:20:39;;;;;;;1.07;0.97;;;21.10;71.40;;;;;;4996884;28;20048;-20
2023/08/23 00:23:05;;;;;;;1.10;1.00;;;21.10;71.60;;;;;;5004988;28;20037;-20
2023/08/23 00:25:31;;;;;;;1.10;1.00;;;21.00;71.60;;;;;;4968830;28;20584;-19
2023/08/23 00:27:57;;;;;;;1.10;1.00;;;21.00;71.60;;;;;;4993846;28;20061;-20
2023/08/23 00:30:23;;;;;;;2.25;1.00;;;20.90;71.60;;;;;;4985912;28;20538;-20
2023/08/23 00:32:49;;;;;;;1.53;1.00;;;20.00;74.10;;;;;;4982890;28;20128;-20
2023/08/23 00:35:14;;;;;;;1.20;0.90;;;20.90;71.80;;;;;;4998284;28;20042;-20
2023/08/23 00:37:40;;;;;;;1.47;1.10;;;20.80;71.80;;;;;;4996846;28;20684;-20
2023/08/23 00:40:09;;;;;;;1.88;1.10;;;20.80;71.90;;;;;;4969131;28;20391;-20
2023/08/23 00:42:35;;;;;;;1.77;1.38;;;20.70;72.10;;;;;;4974809;28;20326;-20
2023/08/23 00:45:01;;;;;;;1.57;0.90;;;20.70;71.90;;;;;;5003978;28;20707;-20
2023/08/23 00:47:27;;;;;;;1.10;1.00;;;20.70;71.90;;;;;;4974804;28;20025;-20
2023/08/23 00:49:53;;;;;;;1.08;0.98;;;20.60;72.00;;;;;;4998077;28;20045;-20
2023/08/23 00:52:19;;;;;;;1.60;1.10;;;20.60;72.10;;;;;;4998887;28;20521;-20
2023/08/23 00:54:45;;;;;;;2.15;1.10;;;20.60;72.20;;;;;;5002978;28;20026;-20
2023/08/23 00:57:12;;;;;;;2.17;1.10;;;20.40;72.20;;;;;;5003536;28;20414;-20
2023/08/23 00:59:38;;;;;;;2.10;1.20;;;20.40;72.40;;;;;;4992109;28;20545;-20
2023/08/23 01:02:04;;;;;;;1.52;0.90;;;20.40;72.50;;;;;;4957604;28;20389;-20
2023/08/23 01:04:30;;;;;;;1.67;1.00;;;20.30;72.50;;;;;;5012678;22;21365;-77
2023/08/23 01:07:18;;;;;;;1.60;1.00;;;20.30;72.60;;;;;;5010506;28;20835;-78
2023/08/23 01:10:24;;;;;;;1.45;0.98;;;20.20;74.10;;;;;;5012163;28;20036;-78
2023/08/23 01:13:08;;;;;;;1.25;0.93;;;20.20;74.30;;;;;;5006922;28;20087;-79
2023/08/23 01:15:35;;;;;;;1.43;1.00;;;20.20;74.10;;;;;;5006793;28;20069;-79
2023/08/23 01:18:02;;;;;;;1.30;1.00;;;20.10;73.00;;;;;;4974712;28;20310;-80
2023/08/23 01:20:29;;;;;;;1.08;1.00;;;20.10;73.00;;;;;;4980728;28;20165;-79
2023/08/23 01:23:12;;;;;;;1.73;1.02;;;20.10;73.00;;;;;;4981435;28;20032;-79
2023/08/23 01:25:49;;;;;;;1.23;1.10;;;20.00;73.60;;;;;;4972678;28;20018;-79
2023/08/23 01:28:16;;;;;;;1.27;1.10;;;20.00;74.20;;;;;;4989215;28;20041;-79
2023/08/23 01:30:42;;;;;;;1.08;0.98;;;19.90;73.10;;;;;;5002665;28;20557;-79
2023/08/23 01:33:35;;;;;;;2.00;1.10;;;19.90;73.00;;;;;;5002884;28;20032;-80
2023/08/23 01:36:05;;;;;;;1.45;1.00;;;19.90;74.10;;;;;;4986312;28;20437;-80
2023/08/23 01:38:32;;;;;;;1.23;1.05;;;19.80;73.10;;;;;;5003833;28;20030;-80
2023/08/23 01:40:59;;;;;;;1.83;1.00;;;19.80;73.40;;;;;;5008543;28;20030;-79
2023/08/23 01:43:25;;;;;;;1.17;1.02;;;19.80;73.30;;;;;;5008335;28;20037;-80
2023/08/23 01:45:50;;;;;;;1.15;1.05;;;19.70;73.30;;;;;;5006761;28;20334;-79
2023/08/23 01:48:16;;;;;;;1.50;1.10;;;19.70;73.40;;;;;;4999335;28;20030;-80
2023/08/23 01:50:42;;;;;;;1.20;1.10;;;19.70;73.50;;;;;;4994153;28;20021;-79
2023/08/23 01:53:07;;;;;;;1.57;1.00;;;19.60;73.60;;;;;;5008057;28;20025;-79
2023/08/23 01:55:33;;;;;;;1.35;0.90;;;19.60;73.60;;;;;;5007458;28;20092;-79
2023/08/23 01:57:59;;;;;;;1.17;1.00;;;19.50;73.60;;;;;;5007573;28;20037;-79
2023/08/23 02:00:25;;;;;;;1.17;1.00;;;19.50;73.70;;;;;;4970150;28;20030;-80
2023/08/23 02:02:51;;;;;;;1.77;0.98;;;19.40;73.70;;;;;;5001146;28;20116;-79
2023/08/23 02:05:16;;;;;;;1.10;1.00;;;19.40;73.80;;;;;;4986933;28;20059;-80
2023/08/23 02:07:42;;;;;;;0.90;0.90;;;19.30;76.40;;;;;;5005536;28;20225;-79
2023/08/23 02:10:08;;;;;;;2.13;1.03;;;19.30;73.90;;;;;;4991628;28;20034;-79
2023/08/23 02:12:33;;;;;;;1.45;1.15;;;19.30;74.00;;;;;;4973830;28;20061;-79
2023/08/23 02:14:59;;;;;;;1.50;1.23;;;19.30;74.00;;;;;;4994616;28;20513;-79
2023/08/23 02:17:25;;;;;;;1.30;1.00;;;19.30;74.30;;;;;;4987559;28;20208;-80
2023/08/23 02:19:51;;;;;;;1.50;1.23;;;19.20;74.30;;;;;;4982071;28;20568;-79
2023/08/23 02:22:17;;;;;;;1.63;1.00;;;19.20;74.40;;;;;;4989837;28;20376;-80
2023/08/23 02:24:42;;;;;;;1.10;0.90;;;19.20;74.40;;;;;;4987347;28;20033;-80
2023/08/23 02:27:08;;;;;;;1.33;1.00;;;19.20;74.50;;;;;;4993048;28;20416;-79
2023/08/23 02:29:34;;;;;;;2.58;1.17;;;19.10;74.50;;;;;;4989386;28;20030;-80
2023/08/23 02:31:59;;;;;;;1.20;1.03;;;19.10;74.50;;;;;;4985245;28;20543;-79
2023/08/23 02:34:25;;;;;;;1.15;0.98;;;19.10;74.50;;;;;;5002624;28;20031;-80
2023/08/23 02:36:51;;;;;;;1.70;1.20;;;19.00;74.50;;;;;;4988785;28;20035;-80
2023/08/23 02:39:17;;;;;;;1.67;1.10;;;19.00;74.50;;;;;;4990659;28;20022;-80
2023/08/23 02:41:43;;;;;;;1.25;1.10;;;19.00;74.60;;;;;;4988449;28;20030;-80
2023/08/23 02:44:08;;;;;;;1.80;0.90;;;18.90;76.90;;;;;;4969383;28;20030;-80
2023/08/23 02:46:34;;;;;;;1.30;1.00;;;18.90;74.60;;;;;;4989872;28;20058;-80
2023/08/23 02:49:00;;;;;;;2.07;1.10;;;18.90;74.70;;;;;;4986366;28;20026;-80
2023/08/23 02:51:25;;;;;;;1.20;1.10;;;18.90;74.80;;;;;;4964384;28;20026;-80
2023/08/23 02:53:51;;;;;;;1.10;0.93;;;18.80;74.80;;;;;;4989160;28;20042;-81
2023/08/23 02:56:17;;;;;;;1.30;1.00;;;18.80;74.80;;;;;;4989549;28;20379;-81
2023/08/23 02:58:43;;;;;;;1.10;1.00;;;18.80;74.90;;;;;;4990265;28;20026;-81
2023/08/23 03:01:09;;;;;;;1.60;1.07;;;18.70;74.90;;;;;;4987901;28;20023;-80
2023/08/23 03:03:34;;;;;;;1.08;0.98;;;18.70;75.10;;;;;;4984999;28;20452;-80
2023/08/23 03:06:00;;;;;;;1.27;1.00;;;18.70;75.10;;;;;;4981713;28;20110;-80
2023/08/23 03:08:26;;;;;;;1.70;1.10;;;18.60;75.20;;;;;;4988164;28;20057;-81
2023/08/23 03:11:01;;;;;;;1.10;1.00;;;18.70;75.40;;;;;;4987628;28;20398;-81
2023/08/23 03:13:27;;;;;;;1.20;0.80;;;18.60;75.40;;;;;;4989821;28;20018;-80
2023/08/23 03:15:54;;;;;;;1.08;0.98;;;18.60;75.40;;;;;;4985023;28;20029;-81
2023/08/23 03:18:20;;;;;;;1.20;0.90;;;18.60;75.40;;;;;;4996786;28;20058;-81
2023/08/23 03:20:47;;;;;;;0.85;0.85;;;18.50;75.40;;;;;;4978549;28;20432;-81
2023/08/23 03:23:13;;;;;;;1.30;0.87;;;18.50;75.40;;;;;;4984052;28;20026;-80
2023/08/23 03:25:38;;;;;;;1.90;0.90;;;18.50;75.40;;;;;;4988365;28;20034;-80
2023/08/23 03:28:04;;;;;;;1.47;1.07;;;18.50;75.40;;;;;;5005183;28;20022;-80
2023/08/23 03:30:30;;;;;;;1.63;1.00;;;18.40;75.40;;;;;;4984369;28;20034;-80
2023/08/23 03:32:56;;;;;;;0.90;0.90;;;18.40;75.40;;;;;;4986032;28;20111;-80
2023/08/23 03:35:21;;;;;;;1.55;1.00;;;18.40;75.60;;;;;;4983120;28;20065;-80
2023/08/23 03:37:47;;;;;;;1.27;0.90;;;18.40;75.60;;;;;;4974442;28;20036;-80
2023/08/23 03:40:13;;;;;;;1.37;1.00;;;18.30;75.60;;;;;;4986573;28;20277;-81
2023/08/23 03:42:39;;;;;;;0.82;0.82;;;18.30;75.50;;;;;;4984141;28;20463;-80
2023/08/23 03:45:05;;;;;;;1.37;0.90;;;18.30;75.60;;;;;;4983460;28;20022;-79
2023/08/23 03:47:31;;;;;;;1.40;0.90;;;18.30;75.70;;;;;;4970119;28;20042;-79
2023/08/23 03:49:56;;;;;;;1.10;0.95;;;18.20;75.70;;;;;;4981224;28;20041;-81
2023/08/23 03:52:22;;;;;;;1.13;1.03;;;18.10;75.70;;;;;;4987388;28;20102;-80
2023/08/23 03:54:48;;;;;;;1.00;0.90;;;18.10;75.70;;;;;;4989602;28;20018;-80
2023/08/23 03:57:13;;;;;;;1.10;0.90;;;18.10;75.90;;;;;;4987931;28;20026;-80
2023/08/23 03:59:39;;;;;;;1.33;1.00;;;18.10;75.90;;;;;;4999809;28;20092;-79
2023/08/23 04:02:05;;;;;;;1.10;0.93;;;18.10;75.90;;;;;;4999735;28;20624;-80
2023/08/23 04:04:31;;;;;;;0.80;0.80;;;18.00;76.00;;;;;;4984721;28;20581;-80
2023/08/23 04:06:57;;;;;;;1.30;1.00;;;18.00;76.00;;;;;;5004583;28;20369;-80
2023/08/23 04:09:23;;;;;;;0.80;0.80;;;18.00;76.10;;;;;;4978290;28;20061;-80
2023/08/23 04:11:49;;;;;;;1.20;0.77;;;18.00;76.20;;;;;;4988464;28;20050;-80
2023/08/23 04:14:14;;;;;;;1.30;1.03;;;17.90;76.20;;;;;;4968343;28;20817;-80
2023/08/23 04:16:40;;;;;;;1.38;0.98;;;17.90;76.20;;;;;;4987894;28;20022;-81
2023/08/23 04:19:06;;;;;;;1.23;1.00;;;17.90;76.30;;;;;;4987682;28;20058;-80
2023/08/23 04:21:32;;;;;;;1.10;1.00;;;17.90;76.30;;;;;;4984434;28;20030;-81
2023/08/23 04:23:59;;;;;;;1.30;1.00;;;17.90;76.30;;;;;;4980217;28;20085;-80
2023/08/23 04:26:25;;;;;;;1.40;1.10;;;17.80;76.50;;;;;;4986624;28;20026;-81
2023/08/23 04:28:51;;;;;;;1.13;1.00;;;17.80;76.50;;;;;;4974378;28;20650;-80
2023/08/23 04:31:17;;;;;;;1.37;1.00;;;17.80;76.50;;;;;;4989306;28;20392;-80
2023/08/23 04:33:43;;;;;;;1.00;0.90;;;17.70;76.60;;;;;;4986039;28;20576;-80
2023/08/23 04:36:09;;;;;;;1.35;1.10;;;17.70;76.60;;;;;;4986862;28;20023;-82
2023/08/23 04:38:34;;;;;;;1.55;1.00;;;17.70;76.70;;;;;;4996148;28;20061;-81
2023/08/23 04:41:01;;;;;;;1.63;1.20;;;17.70;76.70;;;;;;4987550;28;20054;-83
2023/08/23 04:43:27;;;;;;;1.73;1.00;;;17.70;76.80;;;;;;4984756;28;20037;-83
2023/08/23 04:45:57;;;;;;;1.25;1.00;;;17.70;76.80;;;;;;4970133;28;20030;-83
2023/08/23 04:48:23;;;;;;;1.02;0.93;;;17.60;76.90;;;;;;4986583;28;20033;-83
2023/08/23 04:50:56;;;;;;;1.10;1.00;;;17.60;76.90;;;;;;4984280;28;20231;-84
2023/08/23 04:53:23;;;;;;;1.57;0.80;;;17.60;77.40;;;;;;4968065;28;20062;-83
2023/08/23 04:55:49;;;;;;;0.98;0.82;;;17.60;77.00;;;;;;4992871;28;20034;-84
2023/08/23 04:58:16;;;;;;;1.05;0.88;;;15.80;78.60;;;;;;4986761;28;20044;-83
2023/08/23 05:00:44;;;;;;;0.90;0.80;;;17.50;77.10;;;;;;5003341;28;20038;-85
2023/08/23 05:03:10;;;;;;;1.00;0.80;;;17.60;77.40;;;;;;4987965;28;20057;-84
2023/08/23 05:05:36;;;;;;;1.10;0.90;;;17.50;77.10;;;;;;5005082;28;20117;-85
2023/08/23 05:08:04;;;;;;;1.27;1.13;;;17.50;77.20;;;;;;5001786;28;20567;-84
2023/08/23 05:10:30;;;;;;;0.93;0.82;;;17.50;77.40;;;;;;4997897;28;20103;-84
2023/08/23 05:12:56;;;;;;;0.97;0.83;;;17.50;77.40;;;;;;4993384;28;20124;-85
2023/08/23 05:15:22;;;;;;;1.17;1.00;;;17.50;77.40;;;;;;4981083;28;20077;-83
2023/08/23 05:17:48;;;;;;;1.30;1.00;;;17.50;77.60;;;;;;4987021;28;20402;-83
2023/08/23 05:20:14;;;;;;;1.30;1.20;;;17.50;77.60;;;;;;4994360;28;20022;-83
2023/08/23 05:22:41;;;;;;;1.42;1.00;;;17.50;77.70;;;;;;4991060;28;20360;-82
2023/08/23 05:25:07;;;;;;;1.67;1.00;;;17.50;77.70;;;;;;4991526;28;20054;-84
2023/08/23 05:27:32;;;;;;;1.33;1.08;;;17.50;77.90;;;;;;4997714;28;20092;-84
2023/08/23 05:30:00;;;;;;;2.23;1.40;;;17.50;77.90;;;;;;4991524;28;20042;-83
2023/08/23 05:32:26;;;;;;;2.10;1.30;;;17.50;78.00;;;;;;4990082;28;20022;-83
2023/08/23 05:34:52;;;;;;;2.80;1.90;;;17.50;78.10;;;;;;4991603;28;20077;-84
2023/08/23 05:37:19;;;;;;;2.70;1.50;;;17.60;78.20;;;;;;4983608;28;20117;-86
2023/08/23 05:39:47;;;;;;;3.00;1.92;;;17.60;78.20;;;;;;4989144;28;20129;-86
2023/08/23 05:42:13;;;;;;;5.97;2.30;;;17.60;78.40;;;;;;4984687;28;20057;-84
2023/08/23 05:44:38;;;;;;;3.03;1.83;;;17.60;78.50;;;;;;4988932;28;20071;-80
2023/08/23 05:47:04;;;;;;;3.20;2.10;;;17.60;78.60;;;;;;4987305;28;20118;-80
2023/08/23 05:49:30;;;;;;;3.45;1.70;;;17.60;78.80;;;;;;4989969;28;20496;-80
2023/08/23 05:51:56;;;;;;;2.73;1.70;;;17.70;78.90;;;;;;4993695;28;20066;-80
2023/08/23 05:54:23;;;;;;;2.65;1.55;;;17.70;79.00;;;;;;4987964;28;20404;-81
2023/08/23 05:56:48;;;;;;;2.55;1.70;;;17.70;79.10;;;;;;4993789;28;20031;-80
2023/08/23 05:59:14;;;;;;;2.27;1.53;;;17.70;79.30;;;;;;4981727;28;20033;-80
2023/08/23 06:01:40;;;;;;;3.22;1.63;;;17.80;79.50;;;;;;4996300;28;20082;-80
2023/08/23 06:04:06;;;;;;;2.63;1.60;;;17.80;79.50;;;;;;4974651;28;20153;-80
2023/08/23 06:06:33;;;;;;;2.70;1.50;;;17.90;79.70;;;;;;4990403;28;20121;-81
2023/08/23 06:09:00;;;;;;;3.00;1.70;;;17.90;79.80;;;;;;4997913;28;20543;-80
2023/08/23 06:11:26;;;;;;;2.85;1.55;;;18.00;80.20;;;;;;5000393;28;20633;-82
2023/08/23 06:13:52;;;;;;;2.33;1.60;;;18.00;80.10;;;;;;4964435;28;20046;-80
2023/08/23 06:16:18;;;;;;;2.40;1.70;;;18.10;80.40;;;;;;4975340;28;20041;-81
2023/08/23 06:18:43;;;;;;;3.40;2.10;;;18.10;80.50;;;;;;4985425;28;20401;-81
2023/08/23 06:21:09;;;;;;;2.78;1.75;;;18.20;80.70;;;;;;4984616;28;20101;-81
2023/08/23 06:23:36;;;;;;;2.40;1.70;;;18.30;80.90;;;;;;5002329;28;20511;-80
2023/08/23 06:26:03;;;;;;;2.20;1.35;;;18.40;81.10;;;;;;4999447;28;20026;-81
2023/08/23 06:28:29;;;;;;;2.83;1.70;;;18.40;81.30;;;;;;4978059;28;20066;-81
2023/08/23 06:30:57;;;;;;;2.00;1.50;;;18.50;81.40;;;;;;5002850;28;20092;-81
2023/08/23 06:33:23;;;;;;;3.17;1.80;;;18.50;81.50;;;;;;4987052;28;20407;-82
2023/08/23 06:35:49;;;;;;;3.80;2.10;;;18.70;81.80;;;;;;5001254;28;20038;-81
2023/08/23 06:38:15;;;;;;;3.72;1.80;;;18.70;82.00;;;;;;4985885;28;20042;-82
2023/08/23 06:40:44;;;;;;;3.20;1.77;;;18.80;82.10;;;;;;4985692;28;20022;-80
2023/08/23 06:43:17;;;;;;;3.17;1.88;;;18.90;82.80;;;;;;4984493;28;20039;-81
2023/08/23 06:45:43;;;;;;;3.13;1.90;;;19.00;83.40;;;;;;5000098;28;20598;-81
2023/08/23 06:48:09;;;;;;;3.45;2.03;;;19.10;82.70;;;;;;4988434;28;20114;-79
2023/08/23 06:50:35;;;;;;;3.00;2.00;;;19.10;82.80;;;;;;4983063;28;20042;-79
2023/08/23 06:53:01;;;;;;;4.13;2.00;;;19.20;82.90;;;;;;4986047;28;20227;-80
2023/08/23 06:55:27;;;;;;;3.60;2.20;;;19.40;83.00;;;;;;4979514;28;20033;-81
2023/08/23 06:57:53;;;;;;;4.25;2.10;;;19.40;83.10;;;;;;4980149;28;20105;-81
2023/08/23 07:00:19;;;;;;;3.85;2.05;;;19.50;83.20;;;;;;4962776;28;20034;-81
2023/08/23 07:02:44;;;;;;;4.60;2.20;;;19.60;83.30;;;;;;4972062;28;20042;-81
2023/08/23 07:05:10;;;;;;;3.57;2.20;;;19.70;83.40;;;;;;4999586;28;20049;-80
2023/08/23 07:07:36;;;;;;;4.63;2.13;;;19.80;83.40;;;;;;4987695;28;20038;-80
2023/08/23 07:10:02;;;;;;;4.68;2.20;;;19.90;83.50;;;;;;4988755;28;20030;-81
2023/08/23 07:12:28;;;;;;;3.17;2.13;;;19.90;83.60;;;;;;4986821;28;20026;-81
2023/08/23 07:14:54;;;;;;;3.75;2.28;;;20.10;83.70;;;;;;4981459;28;21234;-80
2023/08/23 07:17:20;;;;;;;3.67;2.40;;;21.40;86.30;;;;;;4985106;28;20030;-80
2023/08/23 07:19:48;;;;;;;3.87;2.37;;;20.20;84.70;;;;;;4987347;28;20022;-79
2023/08/23 07:22:13;;;;;;;5.13;2.60;;;20.30;84.00;;;;;;4986411;28;20042;-79
2023/08/23 07:24:39;;;;;;;5.45;2.78;;;20.50;84.00;;;;;;4986741;28;20448;-81
2023/08/23 07:27:05;;;;;;;4.03;2.50;;;20.60;83.90;;;;;;4983259;28;20088;-79
2023/08/23 07:29:31;;;;;;;5.35;2.50;;;20.60;83.90;;;;;;4971296;28;20101;-80
2023/08/23 07:31:59;;;;;;;4.53;2.22;;;20.80;84.20;;;;;;5000728;28;20030;-78
2023/08/23 07:34:26;;;;;;;5.53;2.67;;;20.90;85.70;;;;;;4989175;28;20451;-79
2023/08/23 07:36:51;;;;;;;5.63;2.50;;;21.00;84.30;;;;;;5000701;28;20017;-79
2023/08/23 07:39:17;;;;;;;5.80;2.53;;;21.10;84.10;;;;;;4990948;28;20037;-79
2023/08/23 07:41:43;;;;;;;5.27;2.70;;;21.20;83.90;;;;;;4994009;28;20023;-80
2023/08/23 07:44:09;;;;;;;5.10;2.40;;;21.30;83.90;;;;;;4979119;28;20025;-79
2023/08/23 07:46:35;;;;;;;4.72;2.35;;;21.40;83.90;;;;;;4979869;28;20034;-79
2023/08/23 07:49:01;;;;;;;4.43;2.27;;;21.50;84.00;;;;;;4987046;28;20023;-79
2023/08/23 07:51:26;;;;;;;5.05;2.20;;;21.60;84.10;;;;;;4969604;28;20054;-79
2023/08/23 07:53:53;;;;;;;3.07;1.97;;;21.70;84.10;;;;;;4984568;28;20131;-78
2023/08/23 07:56:19;;;;;;;4.35;2.10;;;21.80;84.10;;;;;;4988202;28;20380;-79
2023/08/23 07:58:44;;;;;;;3.30;1.75;;;21.90;83.90;;;;;;4985479;28;20022;-80
2023/08/23 08:01:10;;;;;;;2.90;1.70;;;22.00;83.80;;;;;;4972555;28;20014;-80
2023/08/23 08:03:36;;;;;;;2.42;1.65;;;22.10;83.70;;;;;;4970783;28;20082;-80
2023/08/23 08:06:02;;;;;;;4.53;2.03;;;22.20;83.90;;;;;;4972101;28;20029;-80
2023/08/23 08:08:27;;;;;;;3.70;2.10;;;22.30;83.90;;;;;;4987444;28;20813;-79
2023/08/23 08:10:53;;;;;;;4.43;2.42;;;22.50;83.80;;;;;;4987920;28;20490;-79
2023/08/23 08:13:19;;;;;;;4.83;2.07;;;22.60;83.60;;;;;;4972092;28;20411;-79
2023/08/23 08:15:45;;;;;;;4.32;1.90;;;22.70;83.60;;;;;;4984195;28;20034;-80
2023/08/23 08:18:10;;;;;;;3.50;1.90;;;22.80;83.60;;;;;;4981264;28;20031;-79
2023/08/23 08:20:36;;;;;;;4.38;1.58;;;22.90;84.50;;;;;;4971905;28;20035;-79
2023/08/23 08:23:02;;;;;;;2.93;1.60;;;23.10;84.30;;;;;;4968593;28;20525;-80
2023/08/23 08:25:28;;;;;;;2.53;1.50;;;23.20;84.90;;;;;;4974571;28;20018;-80
2023/08/23 08:27:54;;;;;;;2.78;1.30;;;23.40;85.90;;;;;;4979724;28;20488;-80
2023/08/23 08:30:19;;;;;;;2.03;1.57;;;23.70;87.20;;;;;;4985041;28;20041;-79
2023/08/23 08:32:46;;;;;;;2.65;1.58;;;24.10;88.20;;;;;;4977759;28;20026;-80
2023/08/23 08:35:11;;;;;;;3.40;1.70;;;24.60;89.30;;;;;;4977489;28;20035;-80
2023/08/23 08:37:37;;;;;;;3.00;1.60;;;25.20;89.90;;;;;;4967496;28;20026;-80
2023/08/23 08:40:04;;;;;;;2.90;1.70;;;25.80;90.10;;;;;;4989830;28;20079;-80
2023/08/23 08:42:30;;;;;;;2.85;1.48;;;26.40;90.30;;;;;;4994892;28;20038;-81
2023/08/23 08:44:56;;;;;;;2.60;1.70;;;27.10;90.30;;;;;;4990809;28;20038;-80
2023/08/23 08:47:25;;;;;;;2.27;1.60;;;27.70;89.80;;;;;;4969319;28;20565;-80
2023/08/23 08:49:51;;;;;;;3.83;1.58;;;28.40;87.70;;;;;;4982575;28;20049;-79
2023/08/23 08:52:20;;;;;;;3.92;1.88;;;29.00;88.00;;;;;;4989492;28;20422;-80
2023/08/23 08:54:48;;;;;;;3.08;1.85;;;29.50;85.70;;;;;;5002878;28;20304;-80
2023/08/23 08:57:15;;;;;;;3.57;2.20;;;30.00;84.90;;;;;;4990955;28;20045;-80
2023/08/23 08:59:44;;;;;;;3.72;2.00;;;30.50;84.20;;;;;;4989959;28;20393;-80
2023/08/23 09:02:12;;;;;;;3.50;1.77;;;31.00;83.50;;;;;;4972132;28;20372;-80
2023/08/23 09:04:39;;;;;;;3.45;2.25;;;31.40;82.60;;;;;;4982220;28;20065;-80
2023/08/23 09:07:05;;;;;;;2.90;2.13;;;31.80;81.30;;;;;;4991283;28;20519;-80
2023/08/23 09:09:33;;;;;;;2.70;2.30;;;32.10;80.20;;;;;;4983665;28;20030;-81
2023/08/23 09:11:58;;;;;;;2.40;2.17;;;32.40;79.10;;;;;;4974701;28;20076;-81
2023/08/23 09:14:28;;;;;;;2.63;2.03;;;32.80;78.30;;;;;;4990346;28;20651;-81
2023/08/23 09:16:53;;;;;;;2.20;2.00;;;33.10;75.30;;;;;;4976725;28;20042;-79
2023/08/23 09:19:19;;;;;;;2.63;2.13;;;33.40;75.70;;;;;;4988822;28;20035;-81
2023/08/23 09:21:49;;;;;;;2.83;1.90;;;33.60;75.00;;;;;;4985447;28;20026;-81
2023/08/23 09:24:16;;;;;;;2.53;2.00;;;33.80;73.80;;;;;;4990602;28;20265;-80
2023/08/23 09:26:45;;;;;;;2.70;2.05;;;34.10;73.20;;;;;;4972805;28;20073;-80
2023/08/23 09:29:12;;;;;;;3.20;1.88;;;34.40;71.30;;;;;;4975013;28;20113;-80
2023/08/23 09:31:39;;;;;;;2.92;1.80;;;34.70;71.70;;;;;;4988330;28;20084;-80
2023/08/23 09:34:14;;;;;;;2.38;2.00;;;34.90;70.50;;;;;;4991251;28;20045;-80
2023/08/23 09:36:40;;;;;;;3.30;1.77;;;35.20;67.60;;;;;;4983785;28;20026;-82
2023/08/23 09:39:12;;;;;;;2.05;1.85;;;35.40;68.60;;;;;;4997178;28;20053;-82
2023/08/23 09:41:42;;;;;;;2.30;1.85;;;35.60;64.70;;;;;;4984953;28;20073;-81
2023/08/23 09:44:08;;;;;;;2.65;2.08;;;35.80;64.30;;;;;;4965587;28;20097;-80
2023/08/23 09:46:37;;;;;;;2.07;1.87;;;36.00;65.10;;;;;;4981624;28;20093;-82
2023/08/23 09:49:07;;;;;;;2.33;2.08;;;36.20;64.10;;;;;;4977751;28;20140;-81
2023/08/23 09:51:38;;;;;;;3.10;1.83;;;36.30;61.60;;;;;;4952626;28;20034;-83
2023/08/23 09:54:20;;;;;;;2.45;1.92;;;36.40;61.90;;;;;;4969141;28;20133;-81
2023/08/23 09:56:47;;;;;;;3.08;2.10;;;36.50;58.60;;;;;;4987402;28;20061;-81
2023/08/23 09:59:14;;;;;;;2.77;2.27;;;36.60;61.00;;;;;;4984809;28;20310;-80
2023/08/23 10:01:40;;;;;;;1.90;1.60;;;36.70;60.50;;;;;;4995751;28;20605;-81
2023/08/23 10:04:07;;;;;;;3.05;1.83;;;36.70;60.20;;;;;;4988531;28;20073;-79
2023/08/23 10:06:34;;;;;;;2.35;2.15;;;36.90;59.80;;;;;;4991503;28;20018;-79
2023/08/23 10:09:03;;;;;;;2.60;2.20;;;37.00;59.60;;;;;;4989503;28;20022;-79
2023/08/23 10:11:30;;;;;;;2.55;2.03;;;37.10;58.80;;;;;;4986606;28;20105;-81
2023/08/23 10:13:57;;;;;;;2.38;2.17;;;37.30;58.40;;;;;;4987019;28;20118;-80
2023/08/23 10:16:24;;;;;;;2.22;1.92;;;37.50;58.00;;;;;;4994502;28;20063;-80
2023/08/23 10:18:51;;;;;;;2.67;2.13;;;37.70;56.80;;;;;;4988560;28;20391;-82
2023/08/23 10:21:17;;;;;;;2.53;2.07;;;37.90;56.00;;;;;;4959260;28;20031;-80
2023/08/23 10:23:43;;;;;;;2.38;2.17;;;38.00;55.40;;;;;;4970687;28;20044;-79
2023/08/23 10:26:19;;;;;;;2.38;2.13;;;38.10;54.70;;;;;;4968591;28;20039;-80
2023/08/23 10:28:51;;;;;;;2.50;2.30;;;38.20;52.60;;;;;;4984504;28;20026;-79
2023/08/23 10:31:28;;;;;;;2.73;2.40;;;38.30;52.60;;;;;;4993996;28;20026;-80
2023/08/23 10:33:55;;;;;;;2.28;1.92;;;38.40;52.80;;;;;;4988116;28;20534;-81
2023/08/23 10:36:28;;;;;;;2.72;2.53;;;38.60;53.00;;;;;;4982942;28;20030;-81
2023/08/23 10:38:56;;;;;;;3.03;2.60;;;38.70;51.90;;;;;;4984902;28;20037;-80
2023/08/23 10:41:22;;;;;;;2.45;2.25;;;38.70;51.90;;;;;;4969740;28;20019;-79
2023/08/23 10:43:48;;;;;;;3.17;2.10;;;38.80;51.90;;;;;;4971013;28;20038;-79
2023/08/23 10:46:20;;;;;;;2.80;2.33;;;38.90;50.80;;;;;;4989818;28;20448;-79
2023/08/23 10:48:46;;;;;;;2.90;2.50;;;38.90;49.70;;;;;;4989311;28;20038;-79
2023/08/23 10:51:13;;;;;;;2.40;2.20;;;38.90;49.90;;;;;;4988146;28;20081;-80
2023/08/23 10:53:41;;;;;;;2.33;2.13;;;38.90;49.80;;;;;;4983181;28;20053;-79
2023/08/23 10:56:07;;;;;;;3.70;2.22;;;39.00;49.40;;;;;;4988337;28;20113;-80
2023/08/23 10:58:33;;;;;;;2.50;2.30;;;39.00;49.30;;;;;;4985327;28;20035;-78
2023/08/23 11:00:59;;;;;;;2.60;2.40;;;39.10;48.80;;;;;;5003170;28;20118;-78
2023/08/23 11:03:28;;;;;;;2.42;2.22;;;39.20;48.50;;;;;;4991367;28;20380;-79
2023/08/23 11:05:55;;;;;;;2.70;2.30;;;39.30;47.10;;;;;;4971112;28;20062;-81
2023/08/23 11:08:22;;;;;;;3.22;2.10;;;39.40;47.20;;;;;;4982217;28;20490;-79
2023/08/23 11:10:48;;;;;;;2.47;2.28;;;39.50;46.50;;;;;;4988269;28;20149;-80
2023/08/23 11:13:14;;;;;;;2.40;2.20;;;39.60;46.00;;;;;;4978818;28;20668;-78
2023/08/23 11:15:43;;;;;;;2.83;2.10;;;39.60;45.70;;;;;;4984597;28;20037;-80
2023/08/23 11:18:12;;;;;;;2.60;1.98;;;39.60;44.50;;;;;;4984126;28;20072;-81
2023/08/23 11:20:38;;;;;;;2.58;2.38;;;39.70;44.70;;;;;;4986015;28;20022;-79
2023/08/23 11:23:04;;;;;;;2.40;2.20;;;39.90;45.00;;;;;;5001166;28;20049;-79
2023/08/23 11:25:30;;;;;;;2.53;2.33;;;40.00;44.80;;;;;;4984275;28;20030;-79
2023/08/23 11:27:58;;;;;;;2.67;2.45;;;40.20;44.50;;;;;;4981811;28;20116;-80
2023/08/23 11:30:23;;;;;;;2.67;2.47;;;40.30;43.90;;;;;;4999464;28;20443;-78
2023/08/23 11:32:49;;;;;;;2.83;2.50;;;40.40;43.80;;;;;;4987165;28;20030;-80
2023/08/23 11:35:18;;;;;;;2.60;2.40;;;40.50;43.00;;;;;;4992533;28;20053;-79
2023/08/23 11:37:48;;;;;;;2.83;2.55;;;40.50;41.70;;;;;;4993080;28;20067;-81
2023/08/23 11:40:15;;;;;;;2.70;2.20;;;40.60;41.00;;;;;;4984914;28;20365;-79
2023/08/23 11:42:41;;;;;;;2.80;2.38;;;40.60;41.20;;;;;;4978059;28;20491;-80
2023/08/23 11:45:07;;;;;;;2.50;2.30;;;40.50;41.10;;;;;;4996332;28;20116;-79
2023/08/23 11:47:36;;;;;;;2.20;2.00;;;40.50;41.30;;;;;;4987619;28;20406;-82
2023/08/23 11:50:07;;;;;;;2.53;2.33;;;40.50;40.80;;;;;;4997693;28;20096;-79
2023/08/23 11:52:33;;;;;;;2.80;2.58;;;40.60;41.00;;;;;;4984538;28;20038;-80
2023/08/23 11:55:02;;;;;;;2.42;2.22;;;40.70;41.40;;;;;;4978435;28;20644;-81
2023/08/23 11:57:31;;;;;;;2.58;2.38;;;40.80;40.60;;;;;;4989058;28;20022;-80
2023/08/23 11:59:57;;;;;;;2.70;2.50;;;40.80;39.90;;;;;;4982921;28;20038;-81
2023/08/23 12:02:22;;;;;;;2.97;2.17;;;41.00;40.60;;;;;;4983570;28;20022;-81
2023/08/23 12:04:48;;;;;;;2.60;2.40;;;41.00;40.50;;;;;;4969479;28;20074;-80
2023/08/23 12:07:14;;;;;;;2.72;2.53;;;41.10;40.10;;;;;;4965829;28;20030;-79
2023/08/23 12:09:40;;;;;;;2.37;2.20;;;41.30;39.90;;;;;;4996820;28;20373;-80
2023/08/23 12:12:06;;;;;;;2.65;2.45;;;41.40;39.70;;;;;;4977628;28;20436;-81
2023/08/23 12:14:32;;;;;;;2.75;2.50;;;41.50;39.40;;;;;;4980191;28;20057;-78
2023/08/23 12:16:57;;;;;;;2.30;2.07;;;41.60;39.00;;;;;;4980204;28;20108;-78
2023/08/23 12:19:24;;;;;;;2.70;2.50;;;41.50;38.40;;;;;;4995573;28;20029;-79
2023/08/23 12:21:50;;;;;;;3.00;2.70;;;41.60;38.40;;;;;;4990030;28;20021;-79
2023/08/23 12:24:16;;;;;;;2.83;2.50;;;41.70;37.40;;;;;;4990251;28;20403;-79
2023/08/23 12:26:42;;;;;;;3.22;2.50;;;41.60;37.40;;;;;;4981138;28;20042;-79
2023/08/23 12:29:08;;;;;;;2.40;2.20;;;41.50;36.70;;;;;;4987153;28;20030;-82
2023/08/23 12:31:34;;;;;;;2.50;2.13;;;41.40;36.30;;;;;;4983129;28;20345;-77
2023/08/23 12:33:59;;;;;;;2.55;2.35;;;41.30;36.10;;;;;;4986385;28;20046;-77
2023/08/23 12:36:25;;;;;;;2.30;2.10;;;41.30;36.50;;;;;;5001970;28;20015;-76
2023/08/23 12:38:52;;;;;;;2.95;2.42;;;41.30;36.70;;;;;;4968452;28;20029;-77
2023/08/23 12:41:18;;;;;;;2.40;2.20;;;41.20;36.40;;;;;;4977031;28;20025;-80
2023/08/23 12:43:44;;;;;;;2.67;2.30;;;41.40;36.30;;;;;;4981092;28;20090;-78
2023/08/23 12:46:10;;;;;;;2.37;2.17;;;41.40;35.60;;;;;;4998067;28;20281;-77